Time;durP1;ratioP1;P1;durP2;ratioP2;P2;SDS_P1;SDS_P2;PMS_P1;PMS_P2;Temp;Humidity;BMP_temperature;BMP_pressure;BME280_temperature;BME280_humidity;BME280_pressure;Samples;Min_cycle;Max_cycle;Signal;HPM_P1;HPM_P2
2022/10/01 00:00:54;;;;;;;20.52;12.23;;;;;;;19.58;100.00;100104.81;5005015;28;20273;-57
2022/10/01 00:03:23;;;;;;;24.03;12.13;;;;;;;20.78;100.00;100120.38;5003221;28;20103;-55
2022/10/01 00:06:08;;;;;;;37.83;13.17;;;;;;;18.38;100.00;100098.44;4981980;28;20273;-57
2022/10/01 00:08:36;;;;;;;31.00;12.53;;;;;;;18.63;100.00;100115.84;5002250;28;20337;-55
2022/10/01 00:11:10;;;;;;;22.07;12.80;;;;;;;20.11;100.00;100098.16;5005517;28;20279;-54
2022/10/01 00:13:37;;;;;;;23.00;12.27;;;;;;;18.72;100.00;100075.50;4996134;28;20265;-54
2022/10/01 00:16:07;;;;;;;19.83;11.85;;;;;;;18.42;100.00;100072.47;5006859;28;20354;-54
2022/10/01 00:18:40;;;;;;;31.23;11.73;;;;;;;18.65;100.00;100070.34;5004693;28;20062;-57
2022/10/01 00:21:18;;;;;;;36.37;13.50;;;;;;;19.53;100.00;100073.06;5008331;28;20296;-55
2022/10/01 00:23:44;;;;;;;38.38;13.30;;;;;;;18.93;100.00;100073.66;4989561;28;20304;-52
2022/10/01 00:26:19;;;;;;;24.87;13.30;;;;;;;18.53;100.00;100075.22;5010841;28;20031;-52
2022/10/01 00:28:47;;;;;;;28.20;13.87;;;;;;;18.46;100.00;100060.06;5005452;28;20276;-56
2022/10/01 00:31:14;;;;;;;37.10;12.90;;;;;;;19.13;100.00;100058.47;4990227;28;20284;-52
2022/10/01 00:33:41;;;;;;;45.57;16.67;;;;;;;18.84;100.00;100067.13;5010453;28;20261;-56
2022/10/01 00:36:09;;;;;;;31.92;13.20;;;;;;;17.83;100.00;100087.91;5007658;28;20270;-52
2022/10/01 00:38:36;;;;;;;26.23;12.70;;;;;;;21.18;100.00;100125.00;5012660;28;20043;-53
2022/10/01 00:41:03;;;;;;;33.87;13.77;;;;;;;23.29;100.00;100134.47;5011157;28;20280;-53
2022/10/01 00:43:32;;;;;;;35.03;16.33;;;;;;;23.05;100.00;100116.28;5003413;28;20280;-52
2022/10/01 00:46:08;;;;;;;29.87;14.90;;;;;;;21.09;100.00;100143.81;4986690;28;20269;-56
2022/10/01 00:48:43;;;;;;;89.25;17.00;;;;;;;21.50;100.00;100137.25;5005322;28;20293;-56
2022/10/01 00:51:09;;;;;;;47.40;14.50;;;;;;;29.21;100.00;100140.41;4997377;28;20055;-55
2022/10/01 00:53:37;;;;;;;0.93;0.93;;;;;;;28.73;100.00;100113.94;5002622;28;20403;-56
2022/10/01 00:56:04;;;;;;;36.07;11.17;;;;;;;31.67;100.00;100102.81;5008412;28;20066;-54
2022/10/01 00:58:30;;;;;;;0.40;0.40;;;;;;;30.92;90.86;100064.63;4992751;28;20336;-54
2022/10/01 01:00:56;;;;;;;55.87;13.00;;;;;;;25.56;100.00;100054.16;4997155;28;20285;-53
2022/10/01 01:03:22;;;;;;;25.42;11.30;;;;;;;31.02;83.81;100064.09;5011896;28;20274;-51
2022/10/01 01:05:49;;;;;;;0.88;0.88;;;;;;;31.48;92.06;100073.94;5026633;28;20041;-52
2022/10/01 01:08:15;;;;;;;35.87;12.77;;;;;;;29.06;100.00;100024.31;5002789;28;20075;-55
2022/10/01 01:10:52;;;;;;;0.80;0.55;;;;;;;30.18;90.84;100014.06;5001188;28;20272;-54
2022/10/01 01:13:40;;;;;;;23.00;12.23;;;;;;;28.92;87.69;100019.13;5011503;28;20054;-55
2022/10/01 01:16:14;;;;;;;32.40;13.77;;;;;;;28.48;87.04;100003.81;5013783;28;20285;-52
2022/10/01 01:18:50;;;;;;;22.90;13.30;;;;;;;19.45;100.00;99970.63;5003452;28;20280;-53
2022/10/01 01:21:25;;;;;;;18.60;10.00;;;;;;;18.70;100.00;99964.75;4996840;28;20265;-54
2022/10/01 01:24:13;;;;;;;37.03;14.67;;;;;;;19.68;100.00;99955.59;4995017;28;20284;-54
2022/10/01 01:26:41;;;;;;;26.42;13.52;;;;;;;19.69;100.00;99940.16;4986830;28;20264;-52
2022/10/01 01:29:19;;;;;;;24.87;12.40;;;;;;;18.18;100.00;99942.25;5009562;28;20040;-52
2022/10/01 01:31:47;;;;;;;22.23;12.13;;;;;;;18.46;100.00;99953.66;5009618;28;20347;-55
2022/10/01 01:34:19;;;;;;;24.13;11.93;;;;;;;17.48;100.00;99952.28;5012024;28;20269;-52
2022/10/01 01:36:50;;;;;;;18.13;10.90;;;;;;;18.22;100.00;99942.50;5000721;28;20268;-53
2022/10/01 01:39:18;;;;;;;21.27;12.07;;;;;;;18.40;100.00;99944.69;5005032;28;20269;-55
2022/10/01 01:41:50;;;;;;;19.50;11.43;;;;;;;18.10;100.00;99921.94;5004201;28;20274;-55
2022/10/01 01:44:22;;;;;;;23.80;11.33;;;;;;;18.55;100.00;99916.81;5009913;28;20292;-55
2022/10/01 01:46:50;;;;;;;17.63;9.87;;;;;;;18.19;100.00;99914.91;5009260;28;20262;-53
2022/10/01 01:49:19;;;;;;;32.60;10.77;;;;;;;18.25;100.00;99917.66;5018661;28;20277;-53
2022/10/01 01:52:02;;;;;;;20.20;9.63;;;;;;;18.38;100.00;99897.34;4996704;28;20285;-53
2022/10/01 01:54:29;;;;;;;20.10;10.47;;;;;;;18.26;100.00;99884.88;4995644;28;20272;-53
2022/10/01 01:56:57;;;;;;;14.97;9.50;;;;;;;17.90;100.00;99893.75;5005185;28;20277;-54
2022/10/01 01:59:24;;;;;;;16.60;9.47;;;;;;;18.17;100.00;99881.09;5017012;28;20257;-55
2022/10/01 02:01:50;;;;;;;11.20;7.37;;;;;;;17.54;100.00;99868.50;5000816;28;20260;-56
2022/10/01 02:04:26;;;;;;;14.10;7.83;;;;;;;17.52;100.00;99879.56;5009767;28;20292;-52
2022/10/01 02:07:29;;;;;;;15.67;6.37;;;;;;;18.55;100.00;99867.28;5003598;28;20272;-54
2022/10/01 02:10:03;;;;;;;10.13;6.97;;;;;;;17.56;100.00;99878.00;4998650;28;20266;-53
2022/10/01 02:12:32;;;;;;;10.90;6.43;;;;;;;17.69;100.00;99870.44;5006409;28;20367;-55
2022/10/01 02:15:09;;;;;;;11.80;6.10;;;;;;;17.81;100.00;99851.25;5001437;28;20273;-55
2022/10/01 02:17:55;;;;;;;8.63;5.70;;;;;;;17.88;100.00;99857.25;5005496;28;20305;-56
2022/10/01 02:20:34;;;;;;;10.63;5.27;;;;;;;17.71;100.00;99836.66;4993827;28;20039;-56
2022/10/01 02:23:10;;;;;;;13.73;7.30;;;;;;;17.77;100.00;99845.59;5014798;28;20291;-55
2022/10/01 02:25:42;;;;;;;9.45;5.65;;;;;;;18.26;100.00;99857.03;5007724;28;20300;-54
2022/10/01 02:28:12;;;;;;;11.07;6.40;;;;;;;18.03;100.00;99837.53;5013285;28;20082;-53
2022/10/01 02:30:39;;;;;;;8.93;5.07;;;;;;;18.34;100.00;99837.53;5009037;28;20723;-56
2022/10/01 02:33:08;;;;;;;9.03;5.07;;;;;;;18.77;100.00;99848.84;5004377;28;20296;-52
2022/10/01 02:35:36;;;;;;;9.73;4.50;;;;;;;18.70;100.00;99851.03;4999979;28;20280;-55
2022/10/01 02:38:05;;;;;;;6.60;4.83;;;;;;;18.08;100.00;99878.13;5001784;28;20285;-56
2022/10/01 02:40:36;;;;;;;8.00;5.40;;;;;;;18.43;100.00;99852.13;5015471;28;20269;-55
2022/10/01 02:43:08;;;;;;;8.27;5.73;;;;;;;18.03;100.00;99853.78;5005235;28;20284;-55
2022/10/01 02:45:36;;;;;;;11.83;5.83;;;;;;;18.25;100.00;99853.50;5001150;28;20280;-55
2022/10/01 02:48:07;;;;;;;11.57;6.27;;;;;;;18.43;100.00;99841.28;4992611;28;20324;-57
2022/10/01 02:50:41;;;;;;;11.90;5.43;;;;;;;18.27;100.00;99847.81;5005536;28;20287;-55
2022/10/01 02:53:18;;;;;;;9.40;5.80;;;;;;;17.71;100.00;99841.25;4998355;28;20266;-52
2022/10/01 02:55:45;;;;;;;;;;;;;;;18.12;100.00;99854.84;5022709;28;20294;-53
2022/10/01 02:58:11;;;;;;;9.38;6.10;;;;;;;18.71;100.00;99844.53;5012586;28;19921;-53
2022/10/01 03:00:37;;;;;;;10.65;6.82;;;;;;;17.79;100.00;99851.56;4997175;28;20114;-52
2022/10/01 03:03:03;;;;;;;12.27;5.80;;;;;;;17.43;100.00;99846.03;4997388;28;20049;-55
2022/10/01 03:05:29;;;;;;;8.87;5.77;;;;;;;18.24;100.00;99853.78;5007238;28;20290;-53
2022/10/01 03:07:54;;;;;;;9.43;4.73;;;;;;;18.32;100.00;99850.53;5013203;28;20273;-54
2022/10/01 03:10:20;;;;;;;7.22;4.75;;;;;;;17.95;100.00;99855.09;5009858;28;20038;-53
2022/10/01 03:12:45;;;;;;;9.03;5.53;;;;;;;18.24;100.00;99834.84;4999702;28;20031;-55
2022/10/01 03:15:15;;;;;;;7.03;4.47;;;;;;;17.57;100.00;99840.94;5007037;28;20285;-56
2022/10/01 03:17:41;;;;;;;7.60;4.20;;;;;;;18.34;100.00;99840.22;5011858;28;20034;-56
2022/10/01 03:20:08;;;;;;;5.60;3.90;;;;;;;19.23;100.00;99843.56;5009831;28;20287;-52
2022/10/01 03:22:33;;;;;;;4.72;3.40;;;;;;;20.55;100.00;99846.75;4998123;28;20289;-51
2022/10/01 03:24:59;;;;;;;4.50;3.47;;;;;;;19.41;100.00;99837.50;5009931;28;20032;-52
2022/10/01 03:27:25;;;;;;;6.55;3.97;;;;;;;18.08;100.00;99828.59;5002164;28;20035;-52
2022/10/01 03:29:51;;;;;;;7.03;3.87;;;;;;;18.87;100.00;99829.03;5003467;28;20039;-50
2022/10/01 03:32:18;;;;;;;5.53;3.70;;;;;;;19.16;100.00;99850.09;5001484;28;20337;-55
2022/10/01 03:34:43;;;;;;;5.22;3.88;;;;;;;19.56;100.00;99836.59;5002479;28;20039;-55
2022/10/01 03:37:09;;;;;;;5.63;3.50;;;;;;;19.72;100.00;99837.34;5001492;28;20052;-56
2022/10/01 03:39:35;;;;;;;7.03;4.18;;;;;;;20.18;100.00;99832.66;5003636;28;20262;-56
2022/10/01 03:42:02;;;;;;;6.30;3.70;;;;;;;19.84;100.00;99828.84;5000804;28;20074;-53
2022/10/01 03:44:28;;;;;;;5.40;3.87;;;;;;;19.45;100.00;99832.34;5014377;28;20029;-55
2022/10/01 03:46:53;;;;;;;5.80;4.28;;;;;;;19.48;100.00;99818.22;4995230;28;20315;-54
2022/10/01 03:49:20;;;;;;;7.70;3.85;;;;;;;20.09;100.00;99829.78;5013757;28;20090;-56
2022/10/01 03:51:46;;;;;;;6.37;3.87;;;;;;;18.99;100.00;99827.94;5028723;28;20050;-56
2022/10/01 03:54:12;;;;;;;7.73;4.23;;;;;;;18.91;100.00;99823.84;5002910;28;20277;-56
2022/10/01 03:56:39;;;;;;;4.60;3.73;;;;;;;18.87;100.00;99858.84;5021651;28;20118;-54
2022/10/01 03:59:06;;;;;;;6.23;4.30;;;;;;;19.46;100.00;99814.97;5003176;28;20049;-52
2022/10/01 04:01:31;;;;;;;6.80;4.50;;;;;;;19.01;100.00;99826.56;5009041;28;20273;-54
2022/10/01 04:03:57;;;;;;;7.28;4.18;;;;;;;19.18;100.00;99828.94;4978542;28;20051;-54
2022/10/01 04:06:23;;;;;;;5.03;4.13;;;;;;;19.17;100.00;99826.53;4993256;28;20038;-52
2022/10/01 04:08:48;;;;;;;7.20;4.67;;;;;;;19.12;100.00;99834.66;4999983;28;20054;-54
2022/10/01 04:11:14;;;;;;;6.23;5.10;;;;;;;19.21;100.00;99824.88;5013406;28;20272;-52
2022/10/01 04:13:39;;;;;;;5.43;4.27;;;;;;;19.44;100.00;99833.44;5003563;28;20275;-56
2022/10/01 04:16:05;;;;;;;6.00;5.10;;;;;;;19.25;100.00;99822.41;5010199;28;20343;-52
2022/10/01 04:18:32;;;;;;;6.82;4.72;;;;;;;19.09;100.00;99829.78;5005014;28;20034;-54
2022/10/01 04:20:57;;;;;;;5.70;4.13;;;;;;;19.72;100.00;99840.06;5002727;28;20073;-54
2022/10/01 04:23:24;;;;;;;6.03;4.73;;;;;;;18.52;100.00;99835.34;5003067;28;20030;-53
2022/10/01 04:25:50;;;;;;;10.70;6.10;;;;;;;18.64;100.00;99835.84;4989891;28;20307;-51
2022/10/01 04:28:16;;;;;;;9.40;5.20;;;;;;;19.06;100.00;99848.22;4991461;28;20280;-53
2022/10/01 04:30:44;;;;;;;10.25;5.38;;;;;;;18.84;100.00;99834.19;5012751;28;20051;-49
2022/10/01 04:33:15;;;;;;;5.83;5.00;;;;;;;18.85;100.00;99833.09;5022225;28;20089;-53
2022/10/01 04:35:42;;;;;;;6.80;4.83;;;;;;;19.27;100.00;99836.50;4992569;28;20295;-54
2022/10/01 04:38:14;;;;;;;9.07;4.60;;;;;;;19.37;100.00;99847.28;5013014;28;20303;-53
2022/10/01 04:40:40;;;;;;;7.53;5.60;;;;;;;19.25;100.00;99855.75;5020575;28;20276;-56
2022/10/01 04:43:08;;;;;;;6.93;5.35;;;;;;;19.09;100.00;99852.28;5002242;28;20345;-56
2022/10/01 04:45:35;;;;;;;6.73;5.77;;;;;;;19.13;100.00;99860.66;5029217;28;20102;-56
2022/10/01 04:48:01;;;;;;;8.87;6.07;;;;;;;19.27;100.00;99858.19;5013009;28;20292;-55
2022/10/01 04:50:27;;;;;;;7.55;5.40;;;;;;;19.90;100.00;99854.84;5021050;28;20277;-54
2022/10/01 04:52:53;;;;;;;8.18;5.80;;;;;;;19.99;100.00;99851.56;4987817;28;20024;-53
2022/10/01 04:55:21;;;;;;;6.93;5.38;;;;;;;19.93;100.00;99848.06;5003182;28;20041;-52
2022/10/01 04:57:47;;;;;;;8.73;4.83;;;;;;;20.45;100.00;99856.59;5003409;28;20058;-53
2022/10/01 05:00:16;;;;;;;8.02;5.72;;;;;;;20.10;100.00;99853.09;5000925;28;20279;-51
2022/10/01 05:02:46;;;;;;;7.93;5.47;;;;;;;21.33;100.00;99873.88;4998246;28;20051;-55
2022/10/01 05:05:11;;;;;;;7.43;5.40;;;;;;;20.03;100.00;99872.41;5007071;28;20280;-53
2022/10/01 05:07:38;;;;;;;8.40;6.25;;;;;;;22.27;100.00;99901.44;5004469;28;20265;-57
2022/10/01 05:10:04;;;;;;;6.93;5.30;;;;;;;22.69;100.00;99904.28;5002612;28;20043;-55
2022/10/01 05:12:30;;;;;;;8.85;5.80;;;;;;;20.53;100.00;99903.22;5016499;28;20269;-56
2022/10/01 05:14:55;;;;;;;11.63;5.80;;;;;;;20.81;100.00;99904.34;5004928;28;20045;-56
2022/10/01 05:17:21;;;;;;;9.70;5.60;;;;;;;23.56;100.00;99925.56;5005739;28;20034;-52
2022/10/01 05:19:47;;;;;;;9.03;6.20;;;;;;;24.26;100.00;99924.56;4997397;28;20029;-55
2022/10/01 05:22:14;;;;;;;8.45;6.60;;;;;;;23.48;100.00;99923.53;4999125;28;20094;-56
2022/10/01 05:24:40;;;;;;;9.32;7.00;;;;;;;23.45;100.00;99921.41;5010854;28;20063;-56
2022/10/01 05:27:12;;;;;;;;;;;;;;;21.74;100.00;99921.53;4989614;28;20046;-55
2022/10/01 05:29:39;;;;;;;12.60;7.17;;;;;;;22.91;100.00;99927.34;4994610;28;19930;-54
2022/10/01 05:32:05;;;;;;;13.47;8.03;;;;;;;20.67;100.00;99922.41;5010827;28;20272;-55
2022/10/01 05:34:30;;;;;;;11.00;8.73;;;;;;;20.23;100.00;99926.81;5001962;28;20319;-54
2022/10/01 05:36:56;;;;;;;12.60;9.48;;;;;;;20.12;100.00;99929.63;5010329;28;20045;-56
2022/10/01 05:39:23;;;;;;;14.53;9.40;;;;;;;20.55;100.00;99934.44;5008575;28;20042;-53
2022/10/01 05:41:48;;;;;;;14.73;10.63;;;;;;;20.58;100.00;99930.38;4995307;28;20274;-55
2022/10/01 05:44:14;;;;;;;15.30;11.27;;;;;;;20.51;100.00;99946.16;5004780;28;20033;-54
2022/10/01 05:46:40;;;;;;;14.25;11.02;;;;;;;20.83;100.00;99942.13;4997163;28;20058;-52
2022/10/01 05:49:07;;;;;;;14.23;10.77;;;;;;;21.34;100.00;99947.00;4997212;28;20045;-56
2022/10/01 05:51:34;;;;;;;18.77;11.73;;;;;;;20.71;100.00;99945.19;5002752;28;20059;-54
2022/10/01 05:54:02;;;;;;;15.27;11.53;;;;;;;21.35;100.00;99951.34;5008567;28;20338;-55
2022/10/01 05:56:28;;;;;;;16.17;10.40;;;;;;;21.12;100.00;99969.28;4996308;28;20362;-55
2022/10/01 05:58:54;;;;;;;16.70;12.10;;;;;;;20.40;100.00;99970.69;4995562;28;20288;-54
2022/10/01 06:01:19;;;;;;;22.70;11.87;;;;;;;20.47;100.00;99973.88;4996661;28;20065;-53
2022/10/01 06:03:45;;;;;;;15.47;11.43;;;;;;;21.31;100.00;99982.13;4995879;28;20293;-54
2022/10/01 06:06:10;;;;;;;18.77;12.65;;;;;;;20.06;100.00;99983.13;5010284;28;20039;-54
2022/10/01 06:08:37;;;;;;;18.80;12.52;;;;;;;21.12;100.00;99977.44;5002490;28;20046;-57
2022/10/01 06:11:04;;;;;;;16.75;11.93;;;;;;;21.13;100.00;99975.53;4994068;28;20095;-55
2022/10/01 06:13:30;;;;;;;18.57;12.00;;;;;;;20.24;100.00;99969.16;5001034;28;20027;-55
2022/10/01 06:15:56;;;;;;;18.38;13.50;;;;;;;20.51;100.00;99978.75;5003986;28;20279;-55
2022/10/01 06:18:22;;;;;;;20.38;13.65;;;;;;;20.75;100.00;99970.69;4988077;28;20035;-57
2022/10/01 06:20:48;;;;;;;18.63;12.60;;;;;;;20.57;100.00;99985.78;5009711;28;20031;-54
2022/10/01 06:23:14;;;;;;;23.47;13.20;;;;;;;20.97;100.00;99985.75;4998897;28;20043;-57
2022/10/01 06:25:41;;;;;;;21.55;14.07;;;;;;;20.99;100.00;99984.38;4999069;28;20328;-55
2022/10/01 06:28:10;;;;;;;18.83;12.67;;;;;;;21.28;100.00;99991.69;5003672;28;20134;-54
2022/10/01 06:30:38;;;;;;;20.47;13.70;;;;;;;20.80;100.00;99995.13;4989521;28;20284;-52
2022/10/01 06:33:06;;;;;;;19.43;13.10;;;;;;;20.88;100.00;99993.69;5004018;28;20258;-56
2022/10/01 06:35:33;;;;;;;18.73;13.50;;;;;;;20.74;100.00;99988.09;5001723;28;20295;-55
2022/10/01 06:38:02;;;;;;;23.63;13.70;;;;;;;21.12;100.00;99987.50;4989121;28;20311;-54
2022/10/01 06:40:28;;;;;;;22.33;14.10;;;;;;;21.19;100.00;99991.50;5009845;28;20293;-52
2022/10/01 06:42:57;;;;;;;24.07;13.63;;;;;;;21.52;100.00;99995.50;5007119;28;20364;-56
2022/10/01 06:45:28;;;;;;;26.23;14.67;;;;;;;21.23;100.00;100001.78;5013368;28;20352;-56
2022/10/01 06:47:55;;;;;;;20.97;14.23;;;;;;;20.78;100.00;99997.28;5007041;28;20265;-55
2022/10/01 06:50:22;;;;;;;24.57;13.90;;;;;;;21.15;100.00;99995.06;5002645;28;20285;-53
2022/10/01 06:52:49;;;;;;;20.63;13.30;;;;;;;21.00;100.00;99994.13;4996662;28;20296;-54
2022/10/01 06:55:20;;;;;;;25.33;14.20;;;;;;;21.18;100.00;99989.88;5004033;28;20284;-53
2022/10/01 06:57:46;;;;;;;23.63;15.20;;;;;;;21.47;100.00;99997.19;4993639;28;20039;-56
2022/10/01 07:00:13;;;;;;;24.08;14.57;;;;;;;21.52;100.00;99999.03;4997762;28;20294;-55
2022/10/01 07:02:39;;;;;;;21.37;15.03;;;;;;;21.46;100.00;100000.19;4999404;28;20046;-52
2022/10/01 07:05:06;;;;;;;19.55;14.23;;;;;;;21.33;100.00;100005.22;4997314;28;20268;-54
2022/10/01 07:07:35;;;;;;;28.67;14.50;;;;;;;20.97;100.00;100011.00;5011875;28;20034;-57
2022/10/01 07:10:03;;;;;;;26.03;14.83;;;;;;;21.05;100.00;100015.00;5010074;28;20270;-58
2022/10/01 07:12:29;;;;;;;21.47;14.87;;;;;;;20.85;100.00;100019.53;5015372;28;20332;-57
2022/10/01 07:14:54;;;;;;;21.87;13.97;;;;;;;21.15;100.00;100024.97;5009961;28;20288;-55
2022/10/01 07:17:21;;;;;;;27.48;16.17;;;;;;;22.81;100.00;100031.06;5007899;28;20035;-57
2022/10/01 07:19:47;;;;;;;21.70;13.90;;;;;;;21.13;100.00;100019.00;5004063;28;20036;-53
2022/10/01 07:22:12;;;;;;;25.17;14.30;;;;;;;21.67;100.00;100032.63;5011878;28;20286;-54
2022/10/01 07:24:38;;;;;;;28.35;13.57;;;;;;;21.32;100.00;100032.69;5004405;28;20037;-54
2022/10/01 07:27:04;;;;;;;22.70;13.68;;;;;;;21.13;100.00;100036.16;5001272;28;20035;-57
2022/10/01 07:29:32;;;;;;;24.40;14.07;;;;;;;20.96;100.00;100047.41;5002484;28;20045;-53
2022/10/01 07:31:59;;;;;;;25.83;14.63;;;;;;;20.62;100.00;100048.22;5004392;28;20293;-56
2022/10/01 07:34:26;;;;;;;26.70;13.97;;;;;;;21.47;100.00;100056.22;5005213;28;20279;-56
2022/10/01 07:36:54;;;;;;;25.20;15.63;;;;;;;21.46;100.00;100054.59;5000657;28;20294;-54
2022/10/01 07:39:22;;;;;;;19.70;13.50;;;;;;;21.28;100.00;100051.50;5023555;28;20279;-55
2022/10/01 07:41:49;;;;;;;26.77;13.63;;;;;;;22.03;100.00;100048.53;5003088;28;20269;-56
2022/10/01 07:44:14;;;;;;;20.80;11.80;;;;;;;21.97;100.00;100053.22;5023395;28;20319;-57
2022/10/01 07:46:40;;;;;;;27.55;14.15;;;;;;;21.90;100.00;100067.16;5013592;28;20276;-56
2022/10/01 07:49:07;;;;;;;18.33;12.45;;;;;;;21.52;100.00;100068.94;5011370;28;20105;-57
2022/10/01 07:51:33;;;;;;;21.80;13.27;;;;;;;22.03;100.00;100073.03;5010906;28;20057;-57
2022/10/01 07:53:59;;;;;;;25.55;12.23;;;;;;;22.32;100.00;100072.91;4996845;28;20292;-56
2022/10/01 07:56:25;;;;;;;23.67;11.95;;;;;;;21.88;100.00;100074.03;5013586;28;20037;-58
2022/10/01 07:58:55;;;;;;;17.88;11.85;;;;;;;21.77;100.00;100086.94;5009338;28;20038;-56
2022/10/01 08:01:21;;;;;;;32.93;12.40;;;;;;;21.41;100.00;100079.09;5003706;28;20134;-53
2022/10/01 08:03:48;;;;;;;20.17;11.50;;;;;;;21.20;100.00;100068.41;4992859;28;20273;-56
2022/10/01 08:06:14;;;;;;;15.27;10.80;;;;;;;21.31;100.00;100080.84;5012481;28;20100;-54
2022/10/01 08:08:40;;;;;;;17.45;9.75;;;;;;;21.43;100.00;100077.72;5014627;28;20264;-55
2022/10/01 08:11:08;;;;;;;10.00;4.85;;;;;;;20.78;100.00;100073.34;4999103;28;20094;-57
2022/10/01 08:13:34;;;;;;;7.53;2.93;;;;;;;20.98;100.00;100083.28;4987475;28;20027;-54
2022/10/01 08:16:02;;;;;;;5.35;2.20;;;;;;;20.63;100.00;100098.72;5022579;28;20265;-57
2022/10/01 08:18:28;;;;;;;7.67;2.50;;;;;;;20.94;100.00;100086.88;5000937;28;20036;-55
2022/10/01 08:20:53;;;;;;;6.73;2.50;;;;;;;20.63;100.00;100099.53;5010770;28;20298;-53
2022/10/01 08:23:20;;;;;;;12.60;2.35;;;;;;;21.00;100.00;100093.88;5008004;28;20274;-56
2022/10/01 08:25:46;;;;;;;4.50;1.92;;;;;;;21.30;100.00;100098.25;4990141;28;20048;-55
2022/10/01 08:28:13;;;;;;;8.25;2.05;;;;;;;21.13;100.00;100095.97;5008174;28;20037;-56
2022/10/01 08:30:40;;;;;;;6.82;2.75;;;;;;;21.39;100.00;100113.94;5005796;28;20035;-56
2022/10/01 08:33:08;;;;;;;10.70;2.70;;;;;;;21.15;100.00;100109.25;4999214;28;20040;-59
2022/10/01 08:35:38;;;;;;;4.40;2.37;;;;;;;21.15;100.00;100117.41;5012150;28;20273;-55
2022/10/01 08:38:04;;;;;;;9.17;2.70;;;;;;;21.57;100.00;100112.44;4995966;28;20281;-54
2022/10/01 08:40:41;;;;;;;5.73;2.50;;;;;;;22.12;100.00;100117.53;4995272;28;20269;-54
2022/10/01 08:43:28;;;;;;;7.05;2.55;;;;;;;22.05;100.00;100119.81;4995296;28;20321;-57
2022/10/01 08:45:58;;;;;;;8.77;2.35;;;;;;;21.88;100.00;100120.28;4995700;28;20034;-57
2022/10/01 08:48:43;;;;;;;10.20;2.43;;;;;;;22.45;100.00;100133.22;5001395;28;20064;-57
2022/10/01 08:51:08;;;;;;;3.93;1.90;;;;;;;23.28;100.00;100137.50;4988183;28;20116;-54
2022/10/01 08:53:44;;;;;;;6.20;1.80;;;;;;;23.56;100.00;100132.94;5002255;28;20031;-57
2022/10/01 08:56:49;;;;;;;6.45;1.85;;;;;;;23.58;100.00;100144.34;4997340;28;20056;-59
2022/10/01 08:59:39;;;;;;;5.53;1.83;;;;;;;23.56;100.00;100152.03;4975293;28;20071;-57
2022/10/01 09:02:24;;;;;;;9.03;1.60;;;;;;;22.90;100.00;100149.25;4963066;28;20040;-56
2022/10/01 09:04:59;;;;;;;6.43;1.47;;;;;;;23.15;100.00;100152.69;4992519;28;20043;-56
2022/10/01 09:07:46;;;;;;;10.33;1.70;;;;;;;22.49;100.00;100153.38;4999909;28;20049;-57
2022/10/01 09:11:05;;;;;;;9.90;2.05;;;;;;;22.27;100.00;100153.88;4988237;28;20284;-54
2022/10/01 09:13:58;;;;;;;8.97;2.70;;;;;;;22.70;100.00;100177.59;4978555;28;20051;-55
2022/10/01 09:16:24;;;;;;;14.47;2.80;;;;;;;22.34;100.00;100176.09;4987503;28;20277;-55
2022/10/01 09:19:09;;;;;;;5.75;1.73;;;;;;;22.37;100.00;100167.34;4985215;28;20311;-56
2022/10/01 09:21:57;;;;;;;11.23;2.27;;;;;;;22.97;100.00;100178.88;5000369;28;20062;-56
2022/10/01 09:24:37;;;;;;;9.57;2.67;;;;;;;23.05;100.00;100191.84;5006552;28;20286;-56
2022/10/01 09:27:15;;;;;;;16.27;3.00;;;;;;;22.68;100.00;100191.53;5018960;28;20275;-55
2022/10/01 09:29:46;;;;;;;11.23;2.60;;;;;;;22.57;100.00;100190.03;4993326;28;20289;-56
2022/10/01 09:32:18;;;;;;;17.70;4.00;;;;;;;24.15;100.00;100191.69;4990912;28;20295;-54
2022/10/01 09:34:44;;;;;;;13.87;2.60;;;;;;;23.52;100.00;100185.69;4993073;28;20293;-54
2022/10/01 09:37:22;;;;;;;17.70;3.05;;;;;;;23.74;100.00;100187.75;4990161;28;20035;-54
2022/10/01 09:39:57;;;;;;;14.03;2.80;;;;;;;23.27;100.00;100193.16;4995773;28;20045;-56
2022/10/01 09:42:26;;;;;;;14.77;2.93;;;;;;;23.59;100.00;100186.91;5003759;28;20268;-56
2022/10/01 09:44:53;;;;;;;14.60;3.63;;;;;;;23.41;100.00;100201.41;4994868;28;20269;-53
2022/10/01 09:47:21;;;;;;;9.13;2.70;;;;;;;23.41;100.00;100195.94;5017771;28;20275;-50
2022/10/01 09:49:48;;;;;;;16.57;2.87;;;;;;;22.81;100.00;100200.88;4999972;28;20059;-54
2022/10/01 09:52:32;;;;;;;16.80;2.67;;;;;;;22.11;100.00;100202.25;4998764;28;20280;-52
2022/10/01 09:55:04;;;;;;;11.73;2.67;;;;;;;22.15;100.00;100198.69;4977915;28;20066;-56
2022/10/01 09:57:41;;;;;;;14.37;3.10;;;;;;;22.75;100.00;100207.53;4993599;28;20272;-57
2022/10/01 10:00:09;;;;;;;;;;;;;;;22.40;100.00;100204.94;4987786;28;20268;-55
2022/10/01 10:02:41;;;;;;;17.50;4.10;;;;;;;23.39;100.00;100212.59;5007264;28;19922;-55
2022/10/01 10:05:15;;;;;;;13.10;3.03;;;;;;;22.97;100.00;100209.66;4996812;28;20303;-57
2022/10/01 10:07:48;;;;;;;13.37;2.90;;;;;;;25.39;100.00;100221.03;5008937;28;20270;-56
2022/10/01 10:10:19;;;;;;;15.93;3.47;;;;;;;26.67;100.00;100220.69;5000986;28;20029;-54
2022/10/01 10:12:47;;;;;;;20.77;3.97;;;;;;;26.85;100.00;100229.78;4990296;28;20031;-57
2022/10/01 10:15:17;;;;;;;16.47;4.17;;;;;;;27.66;100.00;100234.91;4996355;28;20057;-52
2022/10/01 10:17:49;;;;;;;19.30;3.83;;;;;;;26.89;100.00;100225.25;5003069;28;20010;-54
2022/10/01 10:20:37;;;;;;;12.37;3.00;;;;;;;26.25;100.00;100229.25;5006249;28;20031;-56
2022/10/01 10:23:15;;;;;;;24.03;3.57;;;;;;;26.34;100.00;100219.16;5015202;28;20042;-56
2022/10/01 10:25:40;;;;;;;13.17;4.50;;;;;;;26.33;100.00;100229.28;4996066;28;20046;-57
2022/10/01 10:28:19;;;;;;;15.10;3.00;;;;;;;27.81;100.00;100247.34;4994773;28;20043;-55
2022/10/01 10:30:46;;;;;;;11.80;2.60;;;;;;;27.23;100.00;100242.88;5007264;28;20035;-55
2022/10/01 10:33:13;;;;;;;12.23;2.40;;;;;;;28.53;100.00;100249.50;5000192;28;20082;-59
2022/10/01 10:35:39;;;;;;;16.43;3.03;;;;;;;29.54;100.00;100272.63;4994675;28;20034;-56
2022/10/01 10:38:05;;;;;;;;;;;;;;;28.95;100.00;100284.53;5013811;28;20045;-59
2022/10/01 10:40:41;;;;;;;13.70;2.17;;;;;;;29.14;100.00;100273.09;5008798;28;20625;-56
2022/10/01 10:43:27;;;;;;;13.18;2.03;;;;;;;30.33;100.00;100295.78;4988112;28;20066;-56
2022/10/01 10:45:55;;;;;;;14.95;2.85;;;;;;;29.83;100.00;100305.88;4991639;28;20066;-56
2022/10/01 10:48:27;;;;;;;16.30;4.50;;;;;;;29.93;96.04;100312.91;5017826;28;20035;-57
2022/10/01 10:51:00;;;;;;;8.73;1.70;;;;;;;27.66;100.00;100298.09;4997750;28;20042;-54
2022/10/01 10:53:28;;;;;;;6.53;1.60;;;;;;;28.32;100.00;100307.97;5000870;28;20027;-59
2022/10/01 10:56:02;;;;;;;7.03;1.77;;;;;;;30.38;88.45;100339.66;5006712;28;20030;-57
2022/10/01 10:58:32;;;;;;;9.45;2.05;;;;;;;31.21;86.47;100349.81;4999492;28;20055;-57
2022/10/01 11:01:00;;;;;;;8.27;1.33;;;;;;;30.61;81.66;100337.31;4994226;28;20038;-56
2022/10/01 11:03:28;;;;;;;6.35;1.70;;;;;;;30.39;78.84;100335.75;4992184;28;20095;-56
2022/10/01 11:06:01;;;;;;;9.30;2.30;;;;;;;31.92;78.24;100334.84;5004414;28;20022;-57
2022/10/01 11:08:27;;;;;;;13.23;2.67;;;;;;;31.79;68.00;100337.66;5021802;28;20046;-58
2022/10/01 11:11:11;;;;;;;9.73;2.35;;;;;;;32.11;66.96;100356.28;5015845;28;20031;-56
2022/10/01 11:14:08;;;;;;;8.85;1.88;;;;;;;32.74;71.32;100340.88;5013837;28;20051;-57
2022/10/01 11:16:45;;;;;;;7.53;1.58;;;;;;;32.44;66.49;100355.97;4993717;28;20034;-58
2022/10/01 11:19:51;;;;;;;6.68;1.48;;;;;;;30.85;66.57;100352.25;5012507;28;20047;-57
2022/10/01 11:22:25;;;;;;;6.20;1.50;;;;;;;28.07;79.93;100364.63;5017053;28;20033;-56
2022/10/01 11:25:16;;;;;;;9.68;1.60;;;;;;;28.98;80.88;100359.00;4993465;28;20035;-54
2022/10/01 11:27:54;;;;;;;9.55;1.85;;;;;;;29.76;70.48;100361.56;5011002;28;20032;-56